KACY/ACY METAR and TAF weather

Enter ICAO airport designator
Station Type Date Time Source
KACY METAR 2019/02/23 22:54 UTC NOAA

KACY 232254Z 06009KT 10SM BKN060 OVC110 04/02 A3029 RMK AO2 SLP257 T00390017


Station Type Date Time Source
KACY Decoded METAR 2019/02/23 22:54 UTC NOAA

ATLANTIC CITY INTERNATIONAL, NJ, United States (KACY) 39-28N 74-35W 35M
Feb 23, 2019 - 05:54 PM EST / 2019.02.23 2254 UTC
Wind: from the ENE (060 degrees) at 10 MPH (9 KT):0
Visibility: 10 mile(s):0
Sky conditions: overcast
Temperature: 39.0 F (3.9 C)
Dew Point: 35.1 F (1.7 C)
Relative Humidity: 85%
Pressure (altimeter): 30.29 in. Hg (1025 hPa)
ob: KACY 232254Z 06009KT 10SM BKN060 OVC110 04/02 A3029 RMK AO2 SLP257 T00390017
cycle: 23

Station Type Date Time Source
KACY TAF 2019/02/23 18:40 UTC NOAA

TAF KACY 231737Z 2318/2418 08008KT P6SM OVC150
FM232200 09006KT P6SM OVC060
FM240300 09008KT 5SM -RA OVC025
FM240700 09006KT 2SM -RA OVC008
FM240900 10006KT 2SM RA BR OVC005
FM241300 11010KT 2SM -SHRA BR OVC005 WS020/20040KT


Example: see airport list